La Grange, TX (78945)

6:13 AM CST on December 03, 2016 (GMT -0600)
Horton Street | | Change Station

Elev 344 ft 29.92 °N, 96.87 °W | Updated 3 seconds ago

Light Thunderstorms and Rain
Light Thunderstorm Rain
50.7 °F
Feels Like 50.7 °F
N
1.3
Wind Variable Wind from NNE
Gusts 2.5 mph

Today
High -- | Low -- °F
--% Chance of Precip.
Yesterday
High -- | Low -- °F
Precip. -- in
Pressure 29.92 in
Visibility 4.0 miles
Clouds Scattered Clouds 500 ft
Mostly Cloudy 3700 ft
Overcast 4300 ft
Dew Point 50 °F
Humidity 99%
Rainfall 2.19 in
Snow Depth Not available.
7:07 AM 5:27 PM
Waxing Crescent, 14% visible
METAR K3T5 031155Z AUTO 06004KT 4SM -VCTSRA SCT005 BKN037 OVC043 10/10 A2992 RMK AO2 LTG DSNT N THRU E 60053 70066 T01040099 10131 20104
Pressure 29.92 in
Visibility 4.0 miles
Clouds Scattered Clouds 500 ft
Mostly Cloudy 3700 ft
Overcast 4300 ft
Dew Point 50 °F
Humidity 99%
Rainfall 2.19 in
Snow Depth Not available.
7:07 AM 5:27 PM
Waxing Crescent, 14% visible
METAR K3T5 031155Z AUTO 06004KT 4SM -VCTSRA SCT005 BKN037 OVC043 10/10 A2992 RMK AO2 LTG DSNT N THRU E 60053 70066 T01040099 10131 20104

10-Day Weather Forecast

Almanac

Astronomy

Dec. 03, 2016 Rise Set
Actual Time
Civil Twilight
Nautical Twilight
Astronomical Twilight
Moon
Length of Visible Light
Length of Day
Tomorrow will be .
, % of the Moon is Illuminated

Today's Extremes

State Highs State Lows

Community

WunderPhotos

Upload Photos

1,955,441 photos uploaded!

WunderBlog® & News

Nearby

Air Quality

  Air Quality AQ Index Pollutant
Not available.

Snow Depth

Station Depth Elevation

Earthquake Activity

City Distance Mag. Time & Date
Minimum magnitude displayed is 2.5.

Coastal Water Temperatures

Place Temperature

Stations

Nearby Weather Stations

Station Location Temp. Windchill Dew Point Humidity Wind Precip. Elev Updated Type
                   

Watches & Warnings

There are currently no watches in effect.